Aérodrome :
LOGIN :

S'inscrire | Disclaimer

   EN    FR    IT 

 










Légende :    VFR   VFR Marginal   IFR   IFR Intensif   IFR Très Intensif
Visi : 
Plafond : 
>= 8 km
>= 3000ft
5 à 8 km
1000 à 3000 ft
1500m à 5 km
500 à 1000 ft
800 à 1500m
200 à 500 ft
< 800m
< 200 ft
Symboles :   Orages  Brouillard  Fortes neiges  Fortes précipitations  Vent > 20 kt
SIGMETs :   Divers  Orages  Givrage  Turbulence  Onde Orograph.  Cendres Volcan.






- Altitude de l'aérodrome : 17 ft
- Code IATA : MPL


LFMT - Montpellier Méditerranée

DERNIER METAR :
  • 151500Z AUTO 08007KT 9999 BKN019 OVC034 14/11 Q1012 BECMG BKN010

METARs EXPIRÉS :
  • 151430Z AUTO 06006KT 9999 BKN030 15/11 Q1012 BECMG BKN010
  • 151400Z AUTO 06007KT 9999 OVC029 15/12 Q1012 BECMG BKN010
  • 151330Z AUTO 07007KT 9999 BKN027 15/12 Q1012 BECMG BKN010
  • 151300Z AUTO 07007KT 9999 FEW025 16/12 Q1012 BECMG BKN010
  • 151230Z AUTO 07007KT 9999 BKN025 16/12 Q1012 BECMG BKN010

TAF TAF LFMT
Valide du 15 à 15h jusqu'au 16 à 15h UTC


151400Z 1515/1615 VRB05KT 9999 BKN010
TEMPO 1515/1518 NSC
BECMG 1523/1602 14012KT
TEMPO 1606/1615 14020G30KT RA
ATIS : +33 4 67 13 11 70



MET'MAP, la Météo Aéronautique d'un coup d'oeil ! - Copyright ORBIFLY Décembre 2007 - Disclaimer

ORBIFLY MET'MAP TEAM :

Programmation & Développement : Alexandra Zaïnal
Sur une idée originale de : Baudouin d'Aumeries
Assistance à la programmation : Marc-Olivier Méhu
Soutien technique & logistique : Manuel Goepfert

Contact : metmap@orbifly.com




SOURCES & CREDITS :

   NOAA